createdAt,value
2022-10-10T00:01:24.139Z,19.00
2022-10-10T00:03:52.599Z,19.00
2022-10-10T00:06:22.925Z,19.00
2022-10-10T00:08:51.773Z,18.90
2022-10-10T00:11:21.613Z,18.90
2022-10-10T00:13:50.415Z,18.90
2022-10-10T00:16:19.066Z,18.90
2022-10-10T00:18:47.518Z,18.90
2022-10-10T00:21:16.209Z,18.90
2022-10-10T00:23:46.034Z,18.90
2022-10-10T00:26:18.998Z,18.90
2022-10-10T00:28:47.962Z,19.00
2022-10-10T00:31:16.908Z,19.00
2022-10-10T00:33:45.294Z,19.00
2022-10-10T00:36:13.829Z,19.00
2022-10-10T00:38:42.362Z,19.00
2022-10-10T00:41:12.221Z,19.00
2022-10-10T00:43:40.757Z,19.00
2022-10-10T00:46:09.334Z,19.00
2022-10-10T00:48:38.697Z,19.00
2022-10-10T00:51:09.065Z,19.00
2022-10-10T00:53:39.595Z,19.00
2022-10-10T00:56:08.964Z,19.00
2022-10-10T00:58:40.776Z,18.90
2022-10-10T01:01:09.259Z,19.00
2022-10-10T01:03:37.705Z,18.90
2022-10-10T01:06:06.572Z,19.00
2022-10-10T01:08:35.068Z,19.00
2022-10-10T01:11:08.980Z,19.00
2022-10-10T01:13:42.275Z,19.00
2022-10-10T01:16:16.205Z,19.00
2022-10-10T01:18:47.385Z,19.00
2022-10-10T01:21:18.505Z,19.00
2022-10-10T01:24:10.533Z,19.00
2022-10-10T01:26:57.024Z,19.10
2022-10-10T01:29:30.046Z,19.00
2022-10-10T01:32:01.391Z,18.90
2022-10-10T01:34:34.473Z,18.90
2022-10-10T01:37:05.711Z,18.90
2022-10-10T01:39:39.846Z,18.90
2022-10-10T01:42:11.007Z,18.90
2022-10-10T01:44:44.430Z,18.90
2022-10-10T01:47:13.071Z,18.80
2022-10-10T01:49:44.003Z,18.80
2022-10-10T01:52:17.553Z,18.80
2022-10-10T01:54:50.999Z,18.90
2022-10-10T01:57:25.294Z,18.90
2022-10-10T01:59:59.823Z,18.90
2022-10-10T02:02:34.980Z,18.90
2022-10-10T02:05:05.798Z,18.80
2022-10-10T02:07:39.002Z,18.80
2022-10-10T02:10:08.795Z,18.90
2022-10-10T02:12:37.668Z,18.90
2022-10-10T02:15:09.677Z,18.80
2022-10-10T02:17:38.953Z,18.80
2022-10-10T02:20:08.965Z,18.70
2022-10-10T02:22:38.304Z,18.80
2022-10-10T02:25:07.071Z,18.80
2022-10-10T02:27:38.194Z,18.80
2022-10-10T02:30:09.341Z,18.90
2022-10-10T02:32:39.560Z,18.90
2022-10-10T02:35:09.428Z,19.00
2022-10-10T02:37:38.887Z,19.00
2022-10-10T02:40:08.689Z,19.00
2022-10-10T02:42:38.153Z,19.00
2022-10-10T02:45:08.672Z,19.00
2022-10-10T02:47:37.030Z,18.90
2022-10-10T02:50:05.746Z,18.90
2022-10-10T02:52:34.181Z,18.90
2022-10-10T02:55:02.650Z,18.80
2022-10-10T02:57:31.054Z,18.80
2022-10-10T02:59:59.504Z,18.80
2022-10-10T03:02:29.278Z,18.80
2022-10-10T03:04:58.241Z,18.90
2022-10-10T03:07:26.720Z,18.90
2022-10-10T03:09:55.209Z,18.90
2022-10-10T03:12:23.651Z,18.90
2022-10-10T03:14:52.145Z,18.90
2022-10-10T03:17:20.501Z,18.90
2022-10-10T03:19:50.272Z,18.90
2022-10-10T03:22:18.695Z,18.90
2022-10-10T03:24:47.129Z,18.80
2022-10-10T03:27:15.577Z,18.90
2022-10-10T03:29:43.973Z,18.90
2022-10-10T03:32:12.361Z,18.90
2022-10-10T03:34:40.834Z,18.90
2022-10-10T03:37:10.607Z,18.90
2022-10-10T03:39:39.006Z,18.90
2022-10-10T03:42:07.445Z,18.90
2022-10-10T03:44:35.868Z,18.90
2022-10-10T03:47:04.314Z,18.90
2022-10-10T03:49:32.669Z,18.90
2022-10-10T03:52:01.492Z,18.90
2022-10-10T03:54:31.369Z,18.90
2022-10-10T03:56:59.689Z,18.90
2022-10-10T03:59:28.152Z,18.90
2022-10-10T04:01:56.621Z,18.90
2022-10-10T04:04:25.485Z,18.90
2022-10-10T04:06:53.897Z,18.80
2022-10-10T04:09:22.283Z,18.80
2022-10-10T04:11:52.056Z,18.70
2022-10-10T04:14:20.430Z,18.70
2022-10-10T04:16:48.782Z,18.70
2022-10-10T04:19:17.723Z,18.80
2022-10-10T04:21:46.136Z,18.80
2022-10-10T04:24:14.489Z,18.80
2022-10-10T04:26:42.934Z,18.80
2022-10-10T04:29:12.714Z,18.80
2022-10-10T04:31:41.124Z,18.70
2022-10-10T04:34:09.526Z,18.70
2022-10-10T04:36:38.147Z,18.70
2022-10-10T04:39:06.496Z,18.70
2022-10-10T04:41:34.843Z,18.80
2022-10-10T04:44:03.229Z,18.80
2022-10-10T04:46:33.005Z,18.80
2022-10-10T04:49:01.926Z,18.80
2022-10-10T04:51:30.279Z,18.80
2022-10-10T04:53:59.055Z,18.80
2022-10-10T04:56:27.670Z,18.70
2022-10-10T04:58:56.089Z,18.70
2022-10-10T05:01:24.557Z,18.70
2022-10-10T05:03:54.772Z,18.70
2022-10-10T05:06:23.115Z,18.70
2022-10-10T05:08:51.532Z,18.80
2022-10-10T05:11:19.869Z,18.70
2022-10-10T05:13:49.979Z,18.80
2022-10-10T05:16:18.336Z,18.70
2022-10-10T05:18:46.761Z,18.70
2022-10-10T05:21:16.573Z,18.70
2022-10-10T05:23:44.960Z,18.70
2022-10-10T05:26:14.073Z,18.70
2022-10-10T05:28:42.571Z,18.70
2022-10-10T05:31:10.958Z,18.70
2022-10-10T05:33:39.262Z,18.70
2022-10-10T05:36:08.942Z,18.60
2022-10-10T05:38:39.309Z,18.60
2022-10-10T05:41:07.903Z,18.60
2022-10-10T05:43:36.443Z,18.60
2022-10-10T05:46:05.180Z,18.60
2022-10-10T05:48:33.743Z,18.60
2022-10-10T05:51:02.495Z,18.70
2022-10-10T05:53:31.313Z,18.70
2022-10-10T05:56:02.883Z,18.70
2022-10-10T05:58:31.361Z,18.70
2022-10-10T06:01:03.719Z,18.70
2022-10-10T06:03:32.288Z,18.70
2022-10-10T06:06:01.026Z,18.70
2022-10-10T06:08:31.292Z,18.70
2022-10-10T06:11:04.327Z,18.80
2022-10-10T06:13:32.674Z,18.80
2022-10-10T06:16:01.189Z,18.90
2022-10-10T06:18:29.609Z,18.90
2022-10-10T06:21:02.301Z,19.00
2022-10-10T06:23:30.642Z,18.90
2022-10-10T06:25:59.064Z,18.90
2022-10-10T06:28:29.088Z,18.90
2022-10-10T06:31:00.418Z,18.80
2022-10-10T06:33:28.903Z,18.80
2022-10-10T06:35:57.551Z,18.80
2022-10-10T06:38:27.607Z,18.80
2022-10-10T06:41:00.301Z,18.80
2022-10-10T06:43:30.332Z,18.90
2022-10-10T06:45:58.804Z,18.90
2022-10-10T06:48:27.471Z,18.90
2022-10-10T06:51:00.102Z,18.90
2022-10-10T06:53:28.811Z,19.00
2022-10-10T06:55:57.580Z,19.00
2022-10-10T06:58:26.717Z,19.10
2022-10-10T07:00:57.800Z,19.10
2022-10-10T07:03:26.420Z,19.10
2022-10-10T07:05:55.982Z,19.20
2022-10-10T07:08:24.466Z,19.20
2022-10-10T07:10:52.881Z,19.20
2022-10-10T07:13:21.336Z,19.30
2022-10-10T07:15:49.780Z,19.30
2022-10-10T07:18:20.239Z,19.30
2022-10-10T07:20:48.644Z,19.40
2022-10-10T07:23:17.440Z,19.40
2022-10-10T07:25:45.836Z,19.40
2022-10-10T07:28:14.270Z,19.50
2022-10-10T07:30:43.875Z,19.50
2022-10-10T07:33:12.458Z,19.50
2022-10-10T07:35:42.286Z,19.60
2022-10-10T07:38:12.034Z,19.50
2022-10-10T07:40:40.745Z,19.50
2022-10-10T07:43:09.248Z,19.50
2022-10-10T07:45:38.062Z,19.60
2022-10-10T07:48:06.587Z,19.60
2022-10-10T07:50:35.022Z,19.60
2022-10-10T07:53:04.815Z,19.60
2022-10-10T07:55:33.446Z,19.70
2022-10-10T07:58:03.718Z,19.80
2022-10-10T08:00:33.413Z,19.90
2022-10-10T08:03:01.780Z,20.00
2022-10-10T08:05:30.320Z,20.00
2022-10-10T08:07:58.695Z,20.00
2022-10-10T08:10:28.857Z,20.00
2022-10-10T08:12:57.167Z,20.00
2022-10-10T08:15:26.941Z,20.10
2022-10-10T08:17:57.451Z,20.30
2022-10-10T08:20:25.805Z,20.40
2022-10-10T08:22:54.428Z,20.50
2022-10-10T08:25:22.817Z,20.60
2022-10-10T08:27:52.599Z,20.70
2022-10-10T08:30:20.942Z,20.70
2022-10-10T08:32:49.687Z,20.80
2022-10-10T08:35:18.333Z,20.90
2022-10-10T08:37:46.949Z,21.00
2022-10-10T08:40:17.054Z,21.10
2022-10-10T08:42:52.637Z,21.20
2022-10-10T08:45:23.666Z,21.20
2022-10-10T08:47:53.794Z,21.10
2022-10-10T08:50:24.869Z,21.00
2022-10-10T08:52:56.210Z,21.00
2022-10-10T08:55:29.650Z,21.00
2022-10-10T08:58:00.810Z,21.10
2022-10-10T09:00:33.392Z,21.10
2022-10-10T09:03:02.077Z,21.10
2022-10-10T09:05:36.544Z,21.10
2022-10-10T09:08:23.276Z,21.20
2022-10-10T09:10:57.634Z,21.30
2022-10-10T09:13:32.517Z,21.40
2022-10-10T09:16:03.029Z,21.70
2022-10-10T09:18:45.209Z,21.50
2022-10-10T09:21:16.377Z,21.60
2022-10-10T09:23:48.366Z,21.50
2022-10-10T09:26:19.812Z,21.50
2022-10-10T09:28:50.988Z,21.50
2022-10-10T09:31:22.689Z,21.50
2022-10-10T09:33:53.194Z,21.50
2022-10-10T09:36:24.119Z,21.60
2022-10-10T09:38:55.118Z,21.60
2022-10-10T09:41:26.616Z,21.60
2022-10-10T09:43:57.175Z,21.50
2022-10-10T09:46:27.586Z,21.50
2022-10-10T09:48:56.195Z,21.50
2022-10-10T09:51:24.624Z,21.50
2022-10-10T09:53:53.045Z,21.50
2022-10-10T09:56:23.040Z,21.50
2022-10-10T09:58:52.389Z,21.50
2022-10-10T10:01:22.598Z,21.70
2022-10-10T10:04:26.998Z,21.70
2022-10-10T10:07:05.620Z,21.70
2022-10-10T10:09:34.514Z,21.80
2022-10-10T10:12:04.560Z,21.70
2022-10-10T10:14:36.641Z,21.60
2022-10-10T10:17:08.865Z,21.60
2022-10-10T10:19:38.069Z,21.50
2022-10-10T10:22:26.573Z,21.40
2022-10-10T10:24:55.709Z,21.60
2022-10-10T10:27:25.509Z,21.60
2022-10-10T10:29:54.664Z,21.60
2022-10-10T10:32:38.627Z,21.50
2022-10-10T10:35:13.313Z,21.50
2022-10-10T10:37:48.408Z,21.50
2022-10-10T10:40:22.897Z,21.50
2022-10-10T10:42:57.406Z,21.40
2022-10-10T10:45:30.450Z,21.50
2022-10-10T10:48:01.861Z,21.50
2022-10-10T10:50:40.949Z,21.60
2022-10-10T10:53:14.885Z,21.60
2022-10-10T10:55:46.849Z,21.60
2022-10-10T11:01:45.018Z,21.80
2022-10-10T11:05:23.554Z,21.80
2022-10-10T11:07:20.311Z,21.80
2022-10-10T11:09:55.113Z,21.80
2022-10-10T11:12:28.456Z,21.80
2022-10-10T11:14:59.366Z,21.70
2022-10-10T11:17:36.226Z,21.60
2022-10-10T11:20:13.671Z,21.60
2022-10-10T11:22:46.237Z,21.60
2022-10-10T11:25:20.438Z,21.70
2022-10-10T11:27:51.619Z,21.80
2022-10-10T11:30:22.250Z,21.80
2022-10-10T11:32:53.117Z,21.90
2022-10-10T11:35:26.052Z,21.60
2022-10-10T11:37:56.921Z,21.60
2022-10-10T11:40:30.019Z,21.80
2022-10-10T11:43:00.438Z,21.70
2022-10-10T11:45:30.766Z,21.60
2022-10-10T11:48:02.742Z,21.70
2022-10-10T11:50:32.602Z,21.70
2022-10-10T11:53:03.166Z,21.70
2022-10-10T11:55:37.834Z,21.70
2022-10-10T11:58:24.648Z,21.80
2022-10-10T12:00:54.315Z,21.80
2022-10-10T12:03:22.805Z,21.70
2022-10-10T12:05:53.018Z,21.50
2022-10-10T12:08:23.179Z,21.50
2022-10-10T12:10:58.163Z,21.60
2022-10-10T12:13:29.434Z,21.70
2022-10-10T12:15:59.197Z,21.60
2022-10-10T12:18:29.253Z,21.70
2022-10-10T12:21:08.514Z,21.70
2022-10-10T12:23:37.290Z,21.80
2022-10-10T12:26:07.098Z,21.90
2022-10-10T12:28:37.787Z,21.80
2022-10-10T12:31:24.606Z,21.80
2022-10-10T12:34:01.605Z,21.80
2022-10-10T12:36:56.252Z,21.80
2022-10-10T12:39:35.374Z,21.80
2022-10-10T12:42:05.453Z,21.90
2022-10-10T12:44:43.973Z,21.80
2022-10-10T12:47:46.250Z,22.00
2022-10-10T12:50:24.114Z,21.90
2022-10-10T12:52:54.061Z,21.80
2022-10-10T12:55:23.859Z,21.80
2022-10-10T12:57:54.725Z,21.90
2022-10-10T13:00:24.129Z,21.80
2022-10-10T13:02:54.077Z,21.70
2022-10-10T13:05:28.289Z,21.70
2022-10-10T13:08:00.460Z,21.80
2022-10-10T13:10:29.570Z,21.70
2022-10-10T13:13:03.241Z,21.70
2022-10-10T13:15:32.750Z,21.70
2022-10-10T13:18:01.307Z,21.70
2022-10-10T13:20:32.849Z,21.70
2022-10-10T13:23:04.364Z,21.80
2022-10-10T13:25:33.084Z,21.70
2022-10-10T13:28:02.946Z,21.70
2022-10-10T13:30:31.386Z,21.70
2022-10-10T13:32:59.835Z,21.60
2022-10-10T13:35:28.667Z,21.50
2022-10-10T13:37:57.723Z,21.40
2022-10-10T13:40:26.650Z,21.30
2022-10-10T13:42:55.672Z,21.40
2022-10-10T13:45:36.763Z,21.40
2022-10-10T13:48:18.828Z,21.50
2022-10-10T13:50:57.818Z,21.60
2022-10-10T13:53:33.882Z,21.70
2022-10-10T13:56:05.056Z,21.60
2022-10-10T13:58:34.436Z,21.70
2022-10-10T14:01:05.746Z,21.60
2022-10-10T14:03:34.469Z,21.70
2022-10-10T14:06:02.864Z,21.60
2022-10-10T14:08:32.913Z,21.60
2022-10-10T14:11:02.849Z,21.70
2022-10-10T14:13:32.222Z,21.70
2022-10-10T14:16:12.658Z,21.70
2022-10-10T14:18:41.014Z,21.60
2022-10-10T14:21:09.584Z,21.60
2022-10-10T14:23:38.510Z,21.60
2022-10-10T14:26:08.016Z,21.60
2022-10-10T14:28:38.477Z,21.60
2022-10-10T14:31:07.332Z,21.70
2022-10-10T14:33:37.374Z,21.50
2022-10-10T14:36:06.160Z,21.50
2022-10-10T14:38:34.550Z,21.50
2022-10-10T14:41:03.210Z,21.50
2022-10-10T14:43:31.851Z,21.40
2022-10-10T14:46:00.592Z,21.50
2022-10-10T14:48:28.986Z,21.50
2022-10-10T14:50:58.775Z,21.60
2022-10-10T14:53:27.217Z,21.70
2022-10-10T14:55:56.512Z,21.70
2022-10-10T14:58:24.952Z,21.60
2022-10-10T15:00:54.406Z,21.60
2022-10-10T15:03:22.958Z,21.50
2022-10-10T15:05:51.741Z,21.40
2022-10-10T15:08:21.587Z,21.40
2022-10-10T15:10:50.010Z,21.40
2022-10-10T15:13:18.442Z,21.40
2022-10-10T15:15:47.718Z,21.40
2022-10-10T15:18:40.991Z,21.40
2022-10-10T15:21:08.848Z,21.50
2022-10-10T15:23:38.789Z,21.50
2022-10-10T15:26:07.565Z,21.50
2022-10-10T15:28:35.974Z,21.40
2022-10-10T15:31:04.934Z,21.40
2022-10-10T15:33:33.808Z,21.40
2022-10-10T15:36:12.923Z,21.40
2022-10-10T15:38:44.473Z,21.40
2022-10-10T15:41:12.925Z,21.40
2022-10-10T15:43:43.896Z,21.40
2022-10-10T15:46:12.327Z,21.40
2022-10-10T15:48:40.725Z,21.30
2022-10-10T15:51:09.305Z,21.30
2022-10-10T15:53:38.304Z,21.30
2022-10-10T15:56:10.295Z,21.20
2022-10-10T15:58:39.373Z,21.30
2022-10-10T16:01:11.806Z,21.30
2022-10-10T16:03:40.343Z,21.30
2022-10-10T16:06:09.662Z,21.30
2022-10-10T16:08:38.274Z,21.20
2022-10-10T16:11:07.638Z,21.20
2022-10-10T16:13:37.740Z,21.20
2022-10-10T16:16:07.254Z,21.30
2022-10-10T16:18:40.038Z,21.40
2022-10-10T16:21:09.151Z,21.30
2022-10-10T16:23:37.966Z,21.20
2022-10-10T16:26:07.350Z,21.30
2022-10-10T16:28:37.179Z,21.10
2022-10-10T16:31:06.372Z,21.10
2022-10-10T16:33:35.030Z,21.20
2022-10-10T16:36:08.243Z,21.20
2022-10-10T16:38:36.765Z,21.20
2022-10-10T16:41:05.788Z,21.20
2022-10-10T16:43:37.573Z,21.10
2022-10-10T16:46:08.821Z,21.10
2022-10-10T16:48:38.155Z,21.10
2022-10-10T16:51:07.578Z,21.10
2022-10-10T16:53:36.358Z,21.00
2022-10-10T16:56:05.595Z,21.00
2022-10-10T16:58:34.244Z,21.10
2022-10-10T17:01:06.094Z,21.10
2022-10-10T17:03:36.106Z,21.10
2022-10-10T17:06:05.237Z,21.10
2022-10-10T17:08:33.777Z,21.00
2022-10-10T17:11:02.614Z,21.00
2022-10-10T17:13:31.816Z,21.10
2022-10-10T17:16:21.817Z,21.10
2022-10-10T17:18:49.905Z,21.10
2022-10-10T17:21:19.417Z,21.00
2022-10-10T17:23:48.165Z,21.00
2022-10-10T17:26:17.328Z,20.90
2022-10-10T17:28:45.796Z,20.90
2022-10-10T17:31:16.088Z,20.90
2022-10-10T17:33:48.616Z,20.90
2022-10-10T17:36:22.865Z,20.90
2022-10-10T17:38:51.389Z,20.90
2022-10-10T17:41:21.281Z,20.80
2022-10-10T17:43:49.896Z,20.80
2022-10-10T17:46:34.255Z,20.80
2022-10-10T17:49:03.501Z,20.80
2022-10-10T17:51:33.577Z,20.80
2022-10-10T17:54:02.217Z,20.80
2022-10-10T17:56:30.839Z,20.90
2022-10-10T17:59:01.607Z,20.90
2022-10-10T18:01:31.398Z,20.90
2022-10-10T18:04:00.017Z,20.90
2022-10-10T18:06:29.225Z,20.90
2022-10-10T18:08:59.168Z,21.00
2022-10-10T18:11:28.559Z,20.90
2022-10-10T18:14:00.640Z,20.80
2022-10-10T18:16:30.093Z,20.80
2022-10-10T18:18:59.299Z,20.70
2022-10-10T18:21:27.758Z,20.70
2022-10-10T18:23:56.630Z,20.70
2022-10-10T18:26:29.646Z,20.70
2022-10-10T18:28:58.874Z,20.70
2022-10-10T18:31:31.185Z,20.60
2022-10-10T18:34:00.010Z,20.60
2022-10-10T18:36:31.182Z,20.60
2022-10-10T18:39:00.723Z,20.50
2022-10-10T18:41:34.314Z,20.60
2022-10-10T18:44:04.910Z,20.50
2022-10-10T18:46:34.291Z,20.50
2022-10-10T18:49:03.256Z,20.50
2022-10-10T18:51:32.438Z,20.50
2022-10-10T18:54:03.863Z,20.50
2022-10-10T18:56:34.702Z,20.50
2022-10-10T18:59:06.234Z,20.50
2022-10-10T19:01:36.874Z,20.50
2022-10-10T19:04:07.307Z,20.50
2022-10-10T19:06:36.649Z,20.50
2022-10-10T19:09:07.123Z,20.50
2022-10-10T19:11:39.433Z,20.50
2022-10-10T19:14:08.703Z,20.50
2022-10-10T19:16:37.422Z,20.50
2022-10-10T19:19:05.988Z,20.50
2022-10-10T19:21:35.442Z,20.40
2022-10-10T19:24:04.509Z,20.40
2022-10-10T19:26:34.159Z,20.40
2022-10-10T19:29:07.066Z,20.40
2022-10-10T19:31:36.135Z,20.40
2022-10-10T19:34:05.019Z,20.40
2022-10-10T19:36:36.151Z,20.30
2022-10-10T19:39:07.263Z,20.30
2022-10-10T19:41:35.705Z,20.30
2022-10-10T19:44:05.869Z,20.30
2022-10-10T19:46:37.124Z,20.20
2022-10-10T19:49:06.521Z,20.20
2022-10-10T19:51:34.964Z,20.20
2022-10-10T19:54:03.392Z,20.30
2022-10-10T19:56:31.827Z,20.30
2022-10-10T19:59:00.807Z,20.30
2022-10-10T20:01:30.891Z,20.30
2022-10-10T20:03:59.556Z,20.30
2022-10-10T20:06:28.144Z,20.30
2022-10-10T20:08:56.977Z,20.30
2022-10-10T20:11:26.524Z,20.30
2022-10-10T20:13:56.004Z,20.30
2022-10-10T20:16:25.380Z,20.30
2022-10-10T20:18:56.360Z,20.30
2022-10-10T20:21:29.269Z,20.40
2022-10-10T20:23:58.298Z,20.40
2022-10-10T20:26:27.277Z,20.40
2022-10-10T20:28:56.112Z,20.40
2022-10-10T20:31:25.324Z,20.40
2022-10-10T20:33:55.855Z,20.30
2022-10-10T20:36:24.291Z,20.30
2022-10-10T20:38:53.768Z,20.30
2022-10-10T20:41:22.534Z,20.20
2022-10-10T20:43:50.888Z,20.20
2022-10-10T20:46:19.273Z,20.20
2022-10-10T20:48:47.721Z,20.20
2022-10-10T20:51:17.542Z,20.10
2022-10-10T20:53:45.881Z,20.10
2022-10-10T20:56:14.634Z,20.10
2022-10-10T20:58:42.991Z,20.10
2022-10-10T21:01:12.300Z,20.10
2022-10-10T21:03:41.833Z,20.10
2022-10-10T21:06:11.379Z,20.10
2022-10-10T21:08:41.674Z,20.00
2022-10-10T21:11:10.893Z,20.00
2022-10-10T21:13:42.492Z,19.90
2022-10-10T21:16:12.179Z,19.90
2022-10-10T21:18:40.765Z,19.80
2022-10-10T21:21:09.554Z,19.80
2022-10-10T21:23:38.692Z,19.80
2022-10-10T21:26:09.454Z,19.80
2022-10-10T21:28:38.079Z,19.80
2022-10-10T21:31:06.689Z,19.80
2022-10-10T21:33:35.643Z,19.80
2022-10-10T21:36:04.352Z,19.80
2022-10-10T21:38:32.976Z,19.80
2022-10-10T21:41:05.128Z,19.80
2022-10-10T21:43:35.807Z,19.80
2022-10-10T21:46:05.104Z,19.80
2022-10-10T21:48:33.820Z,19.80
2022-10-10T21:51:02.327Z,19.70
2022-10-10T21:53:30.769Z,19.60
2022-10-10T21:55:59.215Z,19.60
2022-10-10T21:58:27.635Z,19.60
2022-10-10T22:00:57.498Z,19.50
2022-10-10T22:03:25.947Z,19.50
2022-10-10T22:05:54.315Z,19.40
2022-10-10T22:08:22.648Z,19.40
2022-10-10T22:10:51.664Z,19.40
2022-10-10T22:13:20.030Z,19.40
2022-10-10T22:15:48.526Z,19.30
2022-10-10T22:18:18.295Z,19.30
2022-10-10T22:20:46.700Z,19.30
2022-10-10T22:23:15.043Z,19.20
2022-10-10T22:25:44.750Z,19.20
2022-10-10T22:28:13.128Z,19.30
2022-10-10T22:30:41.872Z,19.20
2022-10-10T22:33:10.572Z,19.20
2022-10-10T22:35:40.970Z,19.20
2022-10-10T22:38:09.394Z,19.20
2022-10-10T22:40:37.794Z,19.20
2022-10-10T22:43:06.150Z,19.20
2022-10-10T22:45:35.152Z,19.20
2022-10-10T22:48:03.457Z,19.20
2022-10-10T22:50:31.982Z,19.20
2022-10-10T22:53:02.062Z,19.20
2022-10-10T22:55:30.506Z,19.20
2022-10-10T22:57:58.928Z,19.20
2022-10-10T23:00:27.358Z,19.20
2022-10-10T23:02:57.801Z,19.20
2022-10-10T23:05:26.277Z,19.20
2022-10-10T23:07:54.697Z,19.20
2022-10-10T23:10:24.472Z,19.20
2022-10-10T23:12:52.874Z,19.20
2022-10-10T23:15:21.216Z,19.20
2022-10-10T23:17:49.545Z,19.20
2022-10-10T23:20:18.039Z,19.30
2022-10-10T23:22:46.355Z,19.20
2022-10-10T23:25:14.673Z,19.20
2022-10-10T23:27:44.406Z,19.20
2022-10-10T23:30:12.922Z,19.20
2022-10-10T23:32:41.251Z,19.20
2022-10-10T23:35:10.100Z,19.20
2022-10-10T23:37:38.600Z,19.00
2022-10-10T23:40:07.647Z,19.10
2022-10-10T23:42:36.099Z,19.10
2022-10-10T23:45:06.380Z,19.20
2022-10-10T23:47:34.747Z,19.30
2022-10-10T23:50:03.173Z,19.40
2022-10-10T23:52:31.546Z,19.40
2022-10-10T23:54:59.851Z,19.40
2022-10-10T23:57:28.256Z,19.40
2022-10-10T23:59:56.708Z,19.50
